sensor_id;sensor_type;location;lat;lon;timestamp;pressure;altitude;pressure_sealevel;temperature;humidity
77171;BME280;66144;50.020;14.422;2023-02-02T00:01:36;98573.66;;;2.72;79.00
77171;BME280;66144;50.020;14.422;2023-02-02T00:04:01;98581.78;;;2.75;78.36
77171;BME280;66144;50.020;14.422;2023-02-02T00:06:28;98589.34;;;2.77;77.71
77171;BME280;66144;50.020;14.422;2023-02-02T00:08:59;98582.97;;;2.80;77.57
77171;BME280;66144;50.020;14.422;2023-02-02T00:11:24;98592.72;;;2.84;77.42
77171;BME280;66144;50.020;14.422;2023-02-02T00:13:50;98589.31;;;2.90;77.79
77171;BME280;66144;50.020;14.422;2023-02-02T00:18:50;98595.44;;;2.96;77.65
77171;BME280;66144;50.020;14.422;2023-02-02T00:21:15;98597.25;;;3.02;77.16
77171;BME280;66144;50.020;14.422;2023-02-02T00:23:41;98602.19;;;3.03;76.52
77171;BME280;66144;50.020;14.422;2023-02-02T00:26:08;98607.94;;;3.05;75.91
77171;BME280;66144;50.020;14.422;2023-02-02T00:28:33;98606.72;;;3.08;76.30
77171;BME280;66144;50.020;14.422;2023-02-02T00:30:59;98608.91;;;3.11;75.67
77171;BME280;66144;50.020;14.422;2023-02-02T00:33:24;98618.25;;;3.19;75.93
77171;BME280;66144;50.020;14.422;2023-02-02T00:35:53;98605.53;;;3.17;76.88
77171;BME280;66144;50.020;14.422;2023-02-02T00:38:18;98613.28;;;3.17;75.49
77171;BME280;66144;50.020;14.422;2023-02-02T00:40:44;98614.66;;;3.13;75.38
77171;BME280;66144;50.020;14.422;2023-02-02T00:43:09;98614.66;;;3.13;77.16
77171;BME280;66144;50.020;14.422;2023-02-02T00:45:35;98619.81;;;3.13;76.32
77171;BME280;66144;50.020;14.422;2023-02-02T00:48:01;98623.00;;;3.15;75.75
77171;BME280;66144;50.020;14.422;2023-02-02T00:50:26;98626.19;;;3.17;76.93
77171;BME280;66144;50.020;14.422;2023-02-02T00:52:52;98618.25;;;3.19;77.02
77171;BME280;66144;50.020;14.422;2023-02-02T00:55:17;98629.56;;;3.24;76.92
77171;BME280;66144;50.020;14.422;2023-02-02T00:57:43;98626.97;;;3.24;77.59
77171;BME280;66144;50.020;14.422;2023-02-02T01:00:13;98624.97;;;3.26;75.48
77171;BME280;66144;50.020;14.422;2023-02-02T01:02:39;98630.53;;;3.23;76.31
77171;BME280;66144;50.020;14.422;2023-02-02T01:05:04;98621.59;;;3.26;76.31
77171;BME280;66144;50.020;14.422;2023-02-02T01:07:30;98625.78;;;3.27;76.58
77171;BME280;66144;50.020;14.422;2023-02-02T01:09:56;98622.22;;;3.21;74.85
77171;BME280;66144;50.020;14.422;2023-02-02T01:12:21;98629.56;;;3.24;75.81
77171;BME280;66144;50.020;14.422;2023-02-02T01:14:46;98624.38;;;3.24;76.70
77171;BME280;66144;50.020;14.422;2023-02-02T01:17:12;98627.97;;;3.23;75.24
77171;BME280;66144;50.020;14.422;2023-02-02T01:19:38;98621.59;;;3.26;76.43
77171;BME280;66144;50.020;14.422;2023-02-02T01:22:03;98623.75;;;3.29;75.26
77171;BME280;66144;50.020;14.422;2023-02-02T01:24:29;98626.13;;;3.30;75.12
77171;BME280;66144;50.020;14.422;2023-02-02T01:26:54;98622.56;;;3.31;73.76
77171;BME280;66144;50.020;14.422;2023-02-02T01:29:20;98622.56;;;3.31;73.79
77171;BME280;66144;50.020;14.422;2023-02-02T01:31:45;98623.94;;;3.34;74.02
77171;BME280;66144;50.020;14.422;2023-02-02T01:34:10;98621.16;;;3.35;72.96
77171;BME280;66144;50.020;14.422;2023-02-02T01:36:36;98620.78;;;3.38;74.55
77171;BME280;66144;50.020;14.422;2023-02-02T01:39:01;98611.25;;;3.39;75.20
77171;BME280;66144;50.020;14.422;2023-02-02T01:41:26;98621.75;;;3.37;75.11
77171;BME280;66144;50.020;14.422;2023-02-02T01:43:56;98612.44;;;3.36;74.68
77171;BME280;66144;50.020;14.422;2023-02-02T01:46:24;98625.72;;;3.40;74.51
77171;BME280;66144;50.020;14.422;2023-02-02T01:51:41;98616.59;;;3.37;74.94
77171;BME280;66144;50.020;14.422;2023-02-02T01:54:14;98622.75;;;3.36;74.41
77171;BME280;66144;50.020;14.422;2023-02-02T01:56:47;98634.06;;;3.35;73.90
77171;BME280;66144;50.020;14.422;2023-02-02T01:59:15;98622.81;;;3.23;73.76
77171;BME280;66144;50.020;14.422;2023-02-02T02:01:43;98621.19;;;3.29;74.61
77171;BME280;66144;50.020;14.422;2023-02-02T02:04:09;98625.53;;;3.28;74.21
77171;BME280;66144;50.020;14.422;2023-02-02T02:06:35;98637.47;;;3.29;73.66
77171;BME280;66144;50.020;14.422;2023-02-02T02:09:03;98624.56;;;3.29;74.46
77171;BME280;66144;50.020;14.422;2023-02-02T02:11:30;98632.88;;;3.31;75.44
77171;BME280;66144;50.020;14.422;2023-02-02T02:13:59;98630.16;;;3.26;75.11
77171;BME280;66144;50.020;14.422;2023-02-02T02:22:17;98618.22;;;3.25;74.69
77171;BME280;66144;50.020;14.422;2023-02-02T02:33:57;98615.47;;;3.20;74.81
77171;BME280;66144;50.020;14.422;2023-02-02T02:42:19;98607.91;;;3.19;75.08
77171;BME280;66144;50.020;14.422;2023-02-02T02:44:48;98607.13;;;3.18;74.83
77171;BME280;66144;50.020;14.422;2023-02-02T02:47:13;98609.50;;;3.26;75.14
77171;BME280;66144;50.020;14.422;2023-02-02T02:49:44;98605.72;;;3.22;74.43
77171;BME280;66144;50.020;14.422;2023-02-02T02:52:09;98596.78;;;3.25;73.32
77171;BME280;66144;50.020;14.422;2023-02-02T02:54:39;98599.56;;;3.23;72.94
77171;BME280;66144;50.020;14.422;2023-02-02T03:02:49;98604.34;;;3.26;72.44
77171;BME280;66144;50.020;14.422;2023-02-02T03:08:22;98605.34;;;3.25;70.64
77171;BME280;66144;50.020;14.422;2023-02-02T03:10:48;98600.38;;;3.24;71.04
77171;BME280;66144;50.020;14.422;2023-02-02T03:13:15;98594.41;;;3.23;70.76
77171;BME280;66144;50.020;14.422;2023-02-02T03:15:42;98603.94;;;3.23;70.20
77171;BME280;66144;50.020;14.422;2023-02-02T03:18:08;98598.00;;;3.22;69.55
77171;BME280;66144;50.020;14.422;2023-02-02T03:20:33;98597.19;;;3.22;70.21
77171;BME280;66144;50.020;14.422;2023-02-02T03:22:59;98597.78;;;3.24;69.90
77171;BME280;66144;50.020;14.422;2023-02-02T03:25:24;98592.22;;;3.20;69.97
77171;BME280;66144;50.020;14.422;2023-02-02T03:27:50;98598.00;;;3.22;69.73
77171;BME280;66144;50.020;14.422;2023-02-02T03:30:16;98604.53;;;3.18;70.36
77171;BME280;66144;50.020;14.422;2023-02-02T03:32:42;98606.31;;;3.18;71.62
77171;BME280;66144;50.020;14.422;2023-02-02T03:35:09;98614.28;;;3.09;73.00
77171;BME280;66144;50.020;14.422;2023-02-02T03:37:34;98617.06;;;3.08;71.52
77171;BME280;66144;50.020;14.422;2023-02-02T03:39:59;98615.09;;;3.03;72.15
77171;BME280;66144;50.020;14.422;2023-02-02T03:42:25;98618.66;;;3.02;71.89
77171;BME280;66144;50.020;14.422;2023-02-02T03:44:50;98612.91;;;3.00;70.67
77171;BME280;66144;50.020;14.422;2023-02-02T03:47:16;98614.69;;;3.00;71.20
77171;BME280;66144;50.020;14.422;2023-02-02T03:49:41;98611.13;;;3.01;70.98
77171;BME280;66144;50.020;14.422;2023-02-02T03:52:06;98612.50;;;2.97;71.73
77171;BME280;66144;50.020;14.422;2023-02-02T03:54:32;98616.88;;;2.96;71.37
77171;BME280;66144;50.020;14.422;2023-02-02T03:56:58;98619.47;;;2.90;72.52
77171;BME280;66144;50.020;14.422;2023-02-02T03:59:23;98622.66;;;2.85;73.83
77171;BME280;66144;50.020;14.422;2023-02-02T04:01:48;98617.50;;;2.78;73.90
77171;BME280;66144;50.020;14.422;2023-02-02T04:04:14;98621.47;;;2.74;73.62
77171;BME280;66144;50.020;14.422;2023-02-02T04:06:40;98625.66;;;2.69;73.52
77171;BME280;66144;50.020;14.422;2023-02-02T04:09:05;98622.25;;;2.75;73.58
77171;BME280;66144;50.020;14.422;2023-02-02T04:11:31;98632.38;;;2.76;73.40
77171;BME280;66144;50.020;14.422;2023-02-02T04:13:56;98629.41;;;2.80;73.92
77171;BME280;66144;50.020;14.422;2023-02-02T04:16:21;98627.63;;;2.80;73.40
77171;BME280;66144;50.020;14.422;2023-02-02T04:18:47;98635.34;;;2.87;73.54
77171;BME280;66144;50.020;14.422;2023-02-02T04:21:12;98630.56;;;2.90;72.62
77171;BME280;66144;50.020;14.422;2023-02-02T04:23:37;98635.13;;;2.95;72.22
77171;BME280;66144;50.020;14.422;2023-02-02T04:26:03;98629.78;;;2.96;72.03
77171;BME280;66144;50.020;14.422;2023-02-02T04:28:28;98638.72;;;3.00;71.66
77171;BME280;66144;50.020;14.422;2023-02-02T04:30:55;98638.50;;;3.02;71.77
77171;BME280;66144;50.020;14.422;2023-02-02T04:33:21;98639.72;;;3.06;72.04
77171;BME280;66144;50.020;14.422;2023-02-02T04:35:47;98640.28;;;3.08;72.00
77171;BME280;66144;50.020;14.422;2023-02-02T04:38:13;98647.63;;;3.11;71.04
77171;BME280;66144;50.020;14.422;2023-02-02T04:40:39;98645.81;;;3.11;71.41
77171;BME280;66144;50.020;14.422;2023-02-02T04:43:04;98655.56;;;3.16;71.05
77171;BME280;66144;50.020;14.422;2023-02-02T04:45:29;98655.34;;;3.18;70.87
77171;BME280;66144;50.020;14.422;2023-02-02T04:47:55;98657.53;;;3.21;70.82
77171;BME280;66144;50.020;14.422;2023-02-02T04:50:20;98656.16;;;3.18;69.35
77171;BME280;66144;50.020;14.422;2023-02-02T04:52:45;98666.66;;;3.23;69.51
77171;BME280;66144;50.020;14.422;2023-02-02T04:55:11;98659.91;;;3.22;69.42
77171;BME280;66144;50.020;14.422;2023-02-02T04:57:36;98665.69;;;3.24;69.45
77171;BME280;66144;50.020;14.422;2023-02-02T05:00:02;98673.22;;;3.26;68.62
77171;BME280;66144;50.020;14.422;2023-02-02T05:02:27;98671.19;;;3.28;68.90
77171;BME280;66144;50.020;14.422;2023-02-02T05:04:52;98670.59;;;3.32;69.17
77171;BME280;66144;50.020;14.422;2023-02-02T05:07:18;98672.59;;;3.30;68.35
77171;BME280;66144;50.020;14.422;2023-02-02T05:09:43;98668.63;;;3.28;67.45
77171;BME280;66144;50.020;14.422;2023-02-02T05:12:08;98673.00;;;3.34;68.07
77171;BME280;66144;50.020;14.422;2023-02-02T05:14:34;98678.16;;;3.34;66.68
77171;BME280;66144;50.020;14.422;2023-02-02T05:16:59;98672.59;;;3.37;66.96
77171;BME280;66144;50.020;14.422;2023-02-02T05:19:25;98684.09;;;3.41;66.68
77171;BME280;66144;50.020;14.422;2023-02-02T05:21:50;98702.38;;;3.46;66.73
77171;BME280;66144;50.020;14.422;2023-02-02T05:24:15;98700.34;;;3.48;66.38
77171;BME280;66144;50.020;14.422;2023-02-02T05:26:40;98704.53;;;3.49;66.53
77171;BME280;66144;50.020;14.422;2023-02-02T05:29:06;98702.75;;;3.50;65.67
77171;BME280;66144;50.020;14.422;2023-02-02T05:31:33;98699.16;;;3.57;66.07
77171;BME280;66144;50.020;14.422;2023-02-02T05:33:59;98703.53;;;3.57;66.01
77171;BME280;66144;50.020;14.422;2023-02-02T05:36:24;98696.78;;;3.49;65.43
77171;BME280;66144;50.020;14.422;2023-02-02T05:38:50;98704.31;;;3.51;65.66
77171;BME280;66144;50.020;14.422;2023-02-02T05:41:16;98711.88;;;3.59;65.90
77171;BME280;66144;50.020;14.422;2023-02-02T05:43:41;98708.69;;;3.57;65.77
77171;BME280;66144;50.020;14.422;2023-02-02T05:46:07;98712.88;;;3.58;65.66
77171;BME280;66144;50.020;14.422;2023-02-02T05:48:32;98723.00;;;3.59;65.84
77171;BME280;66144;50.020;14.422;2023-02-02T05:51:18;98728.13;;;3.66;65.90
77171;BME280;66144;50.020;14.422;2023-02-02T05:53:44;98727.13;;;3.67;65.45
77171;BME280;66144;50.020;14.422;2023-02-02T05:56:11;98724.97;;;3.64;65.33
77171;BME280;66144;50.020;14.422;2023-02-02T05:58:37;98734.72;;;3.62;65.79
77171;BME280;66144;50.020;14.422;2023-02-02T06:01:02;98740.47;;;3.64;65.47
77171;BME280;66144;50.020;14.422;2023-02-02T06:03:28;98730.72;;;3.66;65.08
77171;BME280;66144;50.020;14.422;2023-02-02T06:05:53;98733.69;;;3.69;65.42
77171;BME280;66144;50.020;14.422;2023-02-02T06:08:18;98740.25;;;3.72;66.08
77171;BME280;66144;50.020;14.422;2023-02-02T06:10:44;98738.84;;;3.69;65.40
77171;BME280;66144;50.020;14.422;2023-02-02T06:13:09;98735.47;;;3.69;65.55
77171;BME280;66144;50.020;14.422;2023-02-02T06:15:35;98755.53;;;3.73;64.92
77171;BME280;66144;50.020;14.422;2023-02-02T06:18:01;98753.53;;;3.75;64.75
77171;BME280;66144;50.020;14.422;2023-02-02T06:20:27;98762.69;;;3.71;65.33
77171;BME280;66144;50.020;14.422;2023-02-02T06:22:52;98761.88;;;3.71;65.11
77171;BME280;66144;50.020;14.422;2023-02-02T06:25:17;98758.91;;;3.74;65.32
77171;BME280;66144;50.020;14.422;2023-02-02T06:27:43;98767.06;;;3.77;65.41
77171;BME280;66144;50.020;14.422;2023-02-02T06:30:11;98759.91;;;3.73;65.34
77171;BME280;66144;50.020;14.422;2023-02-02T06:32:36;98761.88;;;3.77;65.75
77171;BME280;66144;50.020;14.422;2023-02-02T06:35:03;98765.06;;;3.73;65.68
77171;BME280;66144;50.020;14.422;2023-02-02T06:37:28;98755.94;;;3.77;65.39
77171;BME280;66144;50.020;14.422;2023-02-02T06:39:54;98765.47;;;3.83;65.70
77171;BME280;66144;50.020;14.422;2023-02-02T06:42:19;98768.03;;;3.83;65.56
77171;BME280;66144;50.020;14.422;2023-02-02T06:44:44;98774.97;;;3.89;65.66
77171;BME280;66144;50.020;14.422;2023-02-02T06:47:10;98774.75;;;3.91;65.31
77171;BME280;66144;50.020;14.422;2023-02-02T06:49:35;98772.97;;;3.91;65.26
77171;BME280;66144;50.020;14.422;2023-02-02T06:52:00;98789.88;;;4.00;65.94
77171;BME280;66144;50.020;14.422;2023-02-02T06:54:26;98783.09;;;3.99;65.35
77171;BME280;66144;50.020;14.422;2023-02-02T06:56:51;98792.03;;;4.03;65.46
77171;BME280;66144;50.020;14.422;2023-02-02T06:59:16;98787.66;;;4.04;64.65
77171;BME280;66144;50.020;14.422;2023-02-02T07:01:42;98797.97;;;4.10;64.97
77171;BME280;66144;50.020;14.422;2023-02-02T07:04:07;98789.22;;;4.11;64.69
77171;BME280;66144;50.020;14.422;2023-02-02T07:06:32;98792.00;;;4.16;64.55
77171;BME280;66144;50.020;14.422;2023-02-02T07:08:59;98797.16;;;4.16;64.31
77171;BME280;66144;50.020;14.422;2023-02-02T07:11:25;98794.19;;;4.20;65.00
77171;BME280;66144;50.020;14.422;2023-02-02T07:13:50;98795.78;;;4.21;65.14
77171;BME280;66144;50.020;14.422;2023-02-02T07:16:17;98807.84;;;4.27;64.60
77171;BME280;66144;50.020;14.422;2023-02-02T07:18:43;98811.22;;;4.27;64.89
77171;BME280;66144;50.020;14.422;2023-02-02T07:21:16;98811.03;;;4.29;64.20
77171;BME280;66144;50.020;14.422;2023-02-02T07:23:42;98808.25;;;4.30;64.45
77171;BME280;66144;50.020;14.422;2023-02-02T07:26:08;98820.56;;;4.35;64.42
77171;BME280;66144;50.020;14.422;2023-02-02T07:28:34;98820.75;;;4.40;64.68
77171;BME280;66144;50.020;14.422;2023-02-02T07:31:00;98818.97;;;4.40;64.97
77171;BME280;66144;50.020;14.422;2023-02-02T07:33:26;98814.59;;;4.41;64.17
77171;BME280;66144;50.020;14.422;2023-02-02T07:35:52;98824.50;;;4.44;64.98
77171;BME280;66144;50.020;14.422;2023-02-02T07:38:17;98820.91;;;4.45;65.17
77171;BME280;66144;50.020;14.422;2023-02-02T07:40:44;98823.09;;;4.48;64.59
77171;BME280;66144;50.020;14.422;2023-02-02T07:43:09;98822.50;;;4.53;64.45
77171;BME280;66144;50.020;14.422;2023-02-02T07:45:35;98821.28;;;4.55;63.86
77171;BME280;66144;50.020;14.422;2023-02-02T07:48:00;98813.72;;;4.60;64.13
77171;BME280;66144;50.020;14.422;2023-02-02T07:50:26;98820.47;;;4.61;63.95
77171;BME280;66144;50.020;14.422;2023-02-02T07:52:52;98814.28;;;4.62;63.90
77171;BME280;66144;50.020;14.422;2023-02-02T07:55:18;98814.47;;;4.67;64.26
77171;BME280;66144;50.020;14.422;2023-02-02T07:57:43;98825.56;;;4.74;64.16
77171;BME280;66144;50.020;14.422;2023-02-02T08:00:09;98824.97;;;4.79;63.97
77171;BME280;66144;50.020;14.422;2023-02-02T08:02:34;98815.41;;;4.79;63.13
77171;BME280;66144;50.020;14.422;2023-02-02T08:05:00;98828.09;;;4.88;63.99
77171;BME280;66144;50.020;14.422;2023-02-02T08:07:25;98829.88;;;4.87;63.35
77171;BME280;66144;50.020;14.422;2023-02-02T08:09:50;98826.50;;;4.86;63.44
77171;BME280;66144;50.020;14.422;2023-02-02T08:12:17;98829.09;;;4.86;63.17
77171;BME280;66144;50.020;14.422;2023-02-02T08:14:42;98829.84;;;4.94;63.17
77171;BME280;66144;50.020;14.422;2023-02-02T08:17:07;98829.19;;;5.05;63.83
77171;BME280;66144;50.020;14.422;2023-02-02T08:19:33;98838.53;;;5.06;62.72
77171;BME280;66144;50.020;14.422;2023-02-02T08:21:58;98830.34;;;5.09;62.65
77171;BME280;66144;50.020;14.422;2023-02-02T08:24:23;98828.13;;;5.19;62.70
77171;BME280;66144;50.020;14.422;2023-02-02T08:26:48;98830.13;;;5.17;62.41
77171;BME280;66144;50.020;14.422;2023-02-02T08:29:14;98839.88;;;5.15;62.42
77171;BME280;66144;50.020;14.422;2023-02-02T08:31:42;98845.88;;;5.09;62.71
77171;BME280;66144;50.020;14.422;2023-02-02T08:34:09;98855.22;;;5.16;62.60
77171;BME280;66144;50.020;14.422;2023-02-02T08:36:35;98854.03;;;5.12;62.24
77171;BME280;66144;50.020;14.422;2023-02-02T08:39:01;98867.19;;;5.11;61.96
77171;BME280;66144;50.020;14.422;2023-02-02T08:41:27;98867.41;;;5.03;61.84
77171;BME280;66144;50.020;14.422;2023-02-02T08:43:52;98862.41;;;5.08;62.08
77171;BME280;66144;50.020;14.422;2023-02-02T08:46:18;98870.34;;;5.13;62.56
77171;BME280;66144;50.020;14.422;2023-02-02T08:48:44;98868.97;;;5.10;62.58
77171;BME280;66144;50.020;14.422;2023-02-02T08:51:10;98871.53;;;5.17;62.21
77171;BME280;66144;50.020;14.422;2023-02-02T08:53:36;98880.69;;;5.19;62.38
77171;BME280;66144;50.020;14.422;2023-02-02T08:58:31;98884.63;;;5.22;62.21
77171;BME280;66144;50.020;14.422;2023-02-02T09:01:11;98881.84;;;5.24;61.94
77171;BME280;66144;50.020;14.422;2023-02-02T09:03:37;98873.66;;;5.27;62.16
77171;BME280;66144;50.020;14.422;2023-02-02T09:06:07;98881.84;;;5.24;61.72
77171;BME280;66144;50.020;14.422;2023-02-02T09:08:34;98887.22;;;5.22;61.43
77171;BME280;66144;50.020;14.422;2023-02-02T09:11:07;98881.72;;;5.12;61.40
77171;BME280;66144;50.020;14.422;2023-02-02T09:13:34;98892.56;;;5.27;61.93
77171;BME280;66144;50.020;14.422;2023-02-02T09:16:00;98893.38;;;5.28;62.15
77171;BME280;66144;50.020;14.422;2023-02-02T09:18:26;98892.25;;;5.17;61.79
77171;BME280;66144;50.020;14.422;2023-02-02T09:20:52;98896.38;;;5.25;62.05
77171;BME280;66144;50.020;14.422;2023-02-02T09:23:17;98897.38;;;5.24;62.45
77171;BME280;66144;50.020;14.422;2023-02-02T09:25:42;98901.59;;;5.18;61.83
77171;BME280;66144;50.020;14.422;2023-02-02T09:28:08;98897.22;;;5.18;62.19
77171;BME280;66144;50.020;14.422;2023-02-02T09:30:33;98899.75;;;5.25;62.23
77171;BME280;66144;50.020;14.422;2023-02-02T09:32:58;98905.19;;;5.17;62.06
77171;BME280;66144;50.020;14.422;2023-02-02T09:35:23;98908.31;;;5.26;61.82
77171;BME280;66144;50.020;14.422;2023-02-02T09:37:49;98908.31;;;5.26;62.32
77171;BME280;66144;50.020;14.422;2023-02-02T09:40:16;98914.50;;;5.25;62.68
77171;BME280;66144;50.020;14.422;2023-02-02T09:42:59;98922.47;;;5.23;62.76
77171;BME280;66144;50.020;14.422;2023-02-02T09:45:46;98927.50;;;5.18;62.31
77171;BME280;66144;50.020;14.422;2023-02-02T09:48:22;98933.03;;;5.21;62.52
77171;BME280;66144;50.020;14.422;2023-02-02T09:50:58;98934.59;;;5.29;63.11
77171;BME280;66144;50.020;14.422;2023-02-02T09:56:05;98930.34;;;5.41;62.85
77171;BME280;66144;50.020;14.422;2023-02-02T09:58:34;98929.50;;;5.47;62.45
77171;BME280;66144;50.020;14.422;2023-02-02T10:01:09;98933.47;;;5.50;62.68
77171;BME280;66144;50.020;14.422;2023-02-02T10:06:41;98940.56;;;5.61;62.04
77171;BME280;66144;50.020;14.422;2023-02-02T10:11:39;98934.56;;;5.67;61.51
77171;BME280;66144;50.020;14.422;2023-02-02T10:14:14;98939.13;;;5.72;61.28
77171;BME280;66144;50.020;14.422;2023-02-02T10:16:42;98931.94;;;5.74;61.27
77171;BME280;66144;50.020;14.422;2023-02-02T10:19:10;98944.22;;;5.78;61.16
77171;BME280;66144;50.020;14.422;2023-02-02T10:22:29;98940.59;;;5.93;61.50
77171;BME280;66144;50.020;14.422;2023-02-02T10:24:36;98940.53;;;5.99;61.11
77171;BME280;66144;50.020;14.422;2023-02-02T10:27:02;98944.81;;;6.12;61.65
77171;BME280;66144;50.020;14.422;2023-02-02T10:29:56;98943.31;;;6.22;60.40
77171;BME280;66144;50.020;14.422;2023-02-02T10:32:31;98943.06;;;6.31;60.04
77171;BME280;66144;50.020;14.422;2023-02-02T10:37:52;98937.00;;;6.37;59.43
77171;BME280;66144;50.020;14.422;2023-02-02T10:46:17;98909.91;;;8.01;55.06
77171;BME280;66144;50.020;14.422;2023-02-02T10:48:46;98909.69;;;8.02;54.62
77171;BME280;66144;50.020;14.422;2023-02-02T10:51:32;98913.53;;;8.35;53.67
77171;BME280;66144;50.020;14.422;2023-02-02T10:53:59;98915.91;;;8.01;53.17
77171;BME280;66144;50.020;14.422;2023-02-02T10:56:37;98918.84;;;8.05;54.98
77171;BME280;66144;50.020;14.422;2023-02-02T10:59:13;98926.75;;;7.98;55.01
77171;BME280;66144;50.020;14.422;2023-02-02T11:01:40;98926.41;;;8.29;53.64
77171;BME280;66144;50.020;14.422;2023-02-02T11:04:07;98925.16;;;9.07;50.98
77171;BME280;66144;50.020;14.422;2023-02-02T11:06:51;98925.69;;;9.83;49.71
77171;BME280;66144;50.020;14.422;2023-02-02T11:09:26;98927.50;;;10.71;48.44
77171;BME280;66144;50.020;14.422;2023-02-02T11:12:00;98927.31;;;10.56;47.62
77171;BME280;66144;50.020;14.422;2023-02-02T11:17:04;98912.13;;;10.96;46.64
77171;BME280;66144;50.020;14.422;2023-02-02T11:19:34;98910.53;;;11.44;43.57
77171;BME280;66144;50.020;14.422;2023-02-02T11:22:03;98912.06;;;10.91;44.63
77171;BME280;66144;50.020;14.422;2023-02-02T11:24:44;98910.22;;;10.48;45.73
77171;BME280;66144;50.020;14.422;2023-02-02T11:27:17;98907.16;;;10.73;45.02
77171;BME280;66144;50.020;14.422;2023-02-02T11:29:46;98906.59;;;11.73;43.66
77171;BME280;66144;50.020;14.422;2023-02-02T11:34:47;98909.06;;;12.22;42.09
77171;BME280;66144;50.020;14.422;2023-02-02T11:37:13;98902.66;;;13.18;39.84
77171;BME280;66144;50.020;14.422;2023-02-02T11:39:40;98909.56;;;13.74;39.34
77171;BME280;66144;50.020;14.422;2023-02-02T11:42:09;98905.84;;;14.16;38.51
77171;BME280;66144;50.020;14.422;2023-02-02T11:44:37;98905.09;;;13.44;38.21
77171;BME280;66144;50.020;14.422;2023-02-02T11:47:04;98902.47;;;13.80;38.38
77171;BME280;66144;50.020;14.422;2023-02-02T11:49:35;98902.19;;;13.87;38.06
77171;BME280;66144;50.020;14.422;2023-02-02T11:52:04;98900.09;;;13.89;37.59
77171;BME280;66144;50.020;14.422;2023-02-02T11:54:31;98904.81;;;13.97;37.68
77171;BME280;66144;50.020;14.422;2023-02-02T11:57:00;98905.81;;;13.30;39.06
77171;BME280;66144;50.020;14.422;2023-02-02T11:59:41;98908.84;;;12.86;39.27
77171;BME280;66144;50.020;14.422;2023-02-02T12:04:45;98906.75;;;11.94;41.31
77171;BME280;66144;50.020;14.422;2023-02-02T12:09:44;98915.91;;;12.28;41.11
77171;BME280;66144;50.020;14.422;2023-02-02T12:12:49;98925.34;;;12.29;41.07
77171;BME280;66144;50.020;14.422;2023-02-02T12:17:55;98925.25;;;11.55;41.62
77171;BME280;66144;50.020;14.422;2023-02-02T12:20:34;98926.44;;;12.38;40.77
77171;BME280;66144;50.020;14.422;2023-02-02T12:23:27;98924.44;;;12.56;39.88
77171;BME280;66144;50.020;14.422;2023-02-02T12:39:46;98903.09;;;15.21;35.43
77171;BME280;66144;50.020;14.422;2023-02-02T12:45:50;98907.06;;;16.73;33.19
77171;BME280;66144;50.020;14.422;2023-02-02T12:56:28;98920.81;;;15.88;33.22
77171;BME280;66144;50.020;14.422;2023-02-02T13:04:25;98930.97;;;14.63;35.91
77171;BME280;66144;50.020;14.422;2023-02-02T13:07:14;98934.75;;;13.75;37.21
77171;BME280;66144;50.020;14.422;2023-02-02T13:12:24;98936.91;;;12.86;38.82
77171;BME280;66144;50.020;14.422;2023-02-02T13:14:59;98941.75;;;12.62;39.86
77171;BME280;66144;50.020;14.422;2023-02-02T13:17:38;98951.66;;;12.50;39.89
77171;BME280;66144;50.020;14.422;2023-02-02T13:20:48;98959.44;;;12.02;40.13
77171;BME280;66144;50.020;14.422;2023-02-02T13:23:19;98941.50;;;11.84;41.74
77171;BME280;66144;50.020;14.422;2023-02-02T13:25:49;98953.78;;;12.16;42.47
77171;BME280;66144;50.020;14.422;2023-02-02T13:34:05;98947.97;;;11.50;42.04
77171;BME280;66144;50.020;14.422;2023-02-02T13:36:40;98951.94;;;11.03;42.11
77171;BME280;66144;50.020;14.422;2023-02-02T13:39:32;98963.41;;;11.02;43.13
77171;BME280;66144;50.020;14.422;2023-02-02T13:42:00;98962.41;;;10.65;44.27
77171;BME280;66144;50.020;14.422;2023-02-02T13:44:40;98977.50;;;10.41;44.97
77171;BME280;66144;50.020;14.422;2023-02-02T13:47:10;98969.44;;;10.26;43.68
77171;BME280;66144;50.020;14.422;2023-02-02T13:49:43;98974.16;;;9.79;44.64
77171;BME280;66144;50.020;14.422;2023-02-02T14:00:49;98992.47;;;9.39;46.21
77171;BME280;66144;50.020;14.422;2023-02-02T14:03:41;98995.09;;;9.39;45.83
77171;BME280;66144;50.020;14.422;2023-02-02T14:06:10;98988.63;;;9.41;46.27
77171;BME280;66144;50.020;14.422;2023-02-02T14:09:03;98994.38;;;9.43;46.46
77171;BME280;66144;50.020;14.422;2023-02-02T14:11:36;99008.06;;;9.22;47.07
77171;BME280;66144;50.020;14.422;2023-02-02T14:14:15;99006.38;;;9.16;48.00
77171;BME280;66144;50.020;14.422;2023-02-02T14:17:05;99003.53;;;9.06;47.84
77171;BME280;66144;50.020;14.422;2023-02-02T14:45:33;99057.84;;;7.79;51.68
77171;BME280;66144;50.020;14.422;2023-02-02T14:48:09;99070.00;;;7.67;51.67
77171;BME280;66144;50.020;14.422;2023-02-02T14:58:29;99062.94;;;7.37;53.00
77171;BME280;66144;50.020;14.422;2023-02-02T15:24:58;99140.34;;;6.92;54.26
77171;BME280;66144;50.020;14.422;2023-02-02T15:27:25;99141.50;;;6.96;53.60
77171;BME280;66144;50.020;14.422;2023-02-02T15:29:58;99147.19;;;6.86;55.18
77171;BME280;66144;50.020;14.422;2023-02-02T15:32:27;99140.03;;;6.82;55.01
77171;BME280;66144;50.020;14.422;2023-02-02T15:34:57;99155.28;;;6.72;54.77
77171;BME280;66144;50.020;14.422;2023-02-02T15:37:26;99161.63;;;6.76;55.17
77171;BME280;66144;50.020;14.422;2023-02-02T15:39:55;99167.03;;;6.74;56.25
77171;BME280;66144;50.020;14.422;2023-02-02T15:47:53;99182.19;;;6.46;56.07
77171;BME280;66144;50.020;14.422;2023-02-02T15:50:19;99179.84;;;6.38;56.26
77171;BME280;66144;50.020;14.422;2023-02-02T15:52:46;99194.25;;;6.34;56.76
77171;BME280;66144;50.020;14.422;2023-02-02T15:55:34;99195.66;;;6.30;56.83
77171;BME280;66144;50.020;14.422;2023-02-02T15:58:01;99193.69;;;6.25;56.84
77171;BME280;66144;50.020;14.422;2023-02-02T16:00:32;99203.06;;;6.19;57.37
77171;BME280;66144;50.020;14.422;2023-02-02T16:03:07;99210.91;;;6.13;57.62
77171;BME280;66144;50.020;14.422;2023-02-02T16:08:01;99215.91;;;6.08;58.34